Time;durP1;ratioP1;P1;durP2;ratioP2;P2;SDS_P1;SDS_P2;PMS_P1;PMS_P2;Temp;Humidity;BMP_temperature;BMP_pressure;BME280_temperature;BME280_humidity;BME280_pressure;Samples;Min_cycle;Max_cycle;Signal;HPM_P1;HPM_P2
2022/05/10 00:00:30;;;;;;;9.77;6.33;;;15.50;99.90;;;;;;4987694;28;20607;-80
2022/05/10 00:03:00;;;;;;;11.93;6.37;;;15.50;99.90;;;;;;4987518;28;20214;-81
2022/05/10 00:05:45;;;;;;;11.20;6.47;;;15.40;99.90;;;;;;4987876;28;20293;-81
2022/05/10 00:08:15;;;;;;;15.77;6.33;;;15.50;99.90;;;;;;4987853;28;20661;-81
2022/05/10 00:10:43;;;;;;;11.23;6.13;;;15.40;99.90;;;;;;4988353;28;20664;-80
2022/05/10 00:13:10;;;;;;;11.00;6.80;;;15.40;99.90;;;;;;4987323;28;20226;-80
2022/05/10 00:15:39;;;;;;;12.43;6.63;;;15.40;99.90;;;;;;4970477;28;20219;-80
2022/05/10 00:18:11;;;;;;;11.73;6.73;;;15.30;99.90;;;;;;4988031;28;20211;-81
2022/05/10 00:20:38;;;;;;;13.20;6.60;;;15.30;99.90;;;;;;4987750;28;20235;-81
2022/05/10 00:23:05;;;;;;;13.33;6.57;;;15.30;99.90;;;;;;4988252;28;20207;-79
2022/05/10 00:25:32;;;;;;;11.93;6.83;;;15.30;99.90;;;;;;4987118;28;20215;-81
2022/05/10 00:28:00;;;;;;;15.13;7.13;;;15.30;99.90;;;;;;4987283;28;20290;-80
2022/05/10 00:30:27;;;;;;;11.47;6.77;;;15.20;99.90;;;;;;4987914;28;20223;-82
2022/05/10 00:32:55;;;;;;;9.80;6.60;;;15.20;99.90;;;;;;4991474;28;20674;-79
2022/05/10 00:35:28;;;;;;;12.30;6.73;;;15.20;99.90;;;;;;4990966;28;20246;-79
2022/05/10 00:37:59;;;;;;;12.70;6.70;;;15.20;99.90;;;;;;4989754;28;20285;-80
2022/05/10 00:40:30;;;;;;;13.37;6.93;;;15.10;99.90;;;;;;4991012;28;20262;-79
2022/05/10 00:43:31;;;;;;;13.90;7.03;;;15.20;99.90;;;;;;4991362;28;20568;-81
2022/05/10 00:46:12;;;;;;;10.37;6.63;;;15.20;99.90;;;;;;4990335;28;20682;-80
2022/05/10 00:48:47;;;;;;;12.93;7.00;;;15.30;99.90;;;;;;4986778;28;20311;-79
2022/05/10 00:51:27;;;;;;;14.30;7.70;;;14.90;99.90;;;;;;4988585;28;20714;-80
2022/05/10 00:54:04;;;;;;;16.27;7.43;;;14.80;99.90;;;;;;4990924;28;20659;-80
2022/05/10 00:57:00;;;;;;;13.37;7.63;;;14.70;99.90;;;;;;4988363;28;20203;-80
2022/05/10 00:59:52;;;;;;;8.90;6.90;;;14.70;99.90;;;;;;4990216;28;20259;-80
2022/05/10 01:02:40;;;;;;;14.33;7.33;;;14.80;99.90;;;;;;4990761;28;20243;-81
2022/05/10 01:05:32;;;;;;;11.77;6.80;;;14.60;99.90;;;;;;4990344;28;20282;-80
2022/05/10 01:08:18;;;;;;;11.97;7.67;;;14.50;99.90;;;;;;4990569;28;20722;-81
2022/05/10 01:11:12;;;;;;;12.93;8.10;;;14.60;99.90;;;;;;4987767;28;20207;-81
2022/05/10 01:13:48;;;;;;;10.50;8.37;;;14.60;99.90;;;;;;4970828;28;20199;-80
2022/05/10 01:16:20;;;;;;;14.73;8.90;;;14.60;99.90;;;;;;4988889;28;20218;-80
2022/05/10 01:18:48;;;;;;;15.60;8.70;;;14.40;99.90;;;;;;4990695;28;20219;-81
2022/05/10 01:21:44;;;;;;;15.67;9.73;;;14.60;99.90;;;;;;4989158;28;20227;-80
2022/05/10 01:24:21;;;;;;;16.33;9.73;;;14.60;99.90;;;;;;4989926;28;20750;-80
2022/05/10 01:27:25;;;;;;;16.07;10.77;;;14.50;99.90;;;;;;4989247;28;20661;-80
2022/05/10 01:30:07;;;;;;;16.17;10.33;;;14.80;99.90;;;;;;4988378;28;20610;-80
2022/05/10 01:36:03;;;;;;;18.40;11.47;;;14.90;99.90;;;;;;4990077;28;20214;-80
2022/05/10 01:38:29;;;;;;;16.60;10.97;;;14.50;99.90;;;;;;4990257;28;20265;-80
2022/05/10 01:41:12;;;;;;;17.67;11.03;;;14.80;99.90;;;;;;4990098;28;20234;-80
2022/05/10 01:43:47;;;;;;;20.20;11.80;;;14.90;99.90;;;;;;4989325;28;20235;-82
2022/05/10 01:46:23;;;;;;;18.70;10.90;;;14.90;99.90;;;;;;4989982;28;20214;-81
2022/05/10 01:48:57;;;;;;;17.57;11.30;;;14.90;99.90;;;;;;4986734;28;20300;-81
2022/05/10 01:51:33;;;;;;;17.67;12.00;;;15.30;99.90;;;;;;4989875;28;20317;-79
2022/05/10 01:54:00;;;;;;;16.93;12.33;;;14.90;99.90;;;;;;4990068;28;20965;-80
2022/05/10 01:56:28;;;;;;;19.43;11.67;;;14.90;99.90;;;;;;4988062;28;20257;-81
2022/05/10 01:58:56;;;;;;;18.07;12.30;;;14.90;99.90;;;;;;4986773;28;20663;-80
2022/05/10 02:01:41;;;;;;;18.90;12.00;;;14.90;99.90;;;;;;4989924;28;20231;-81
2022/05/10 02:04:24;;;;;;;20.30;13.07;;;15.00;99.90;;;;;;4989071;28;20223;-80
2022/05/10 02:07:03;;;;;;;17.80;11.40;;;14.90;99.90;;;;;;4986937;28;20215;-80
2022/05/10 02:09:35;;;;;;;15.50;11.00;;;14.90;99.90;;;;;;4971350;28;20207;-80
2022/05/10 02:12:11;;;;;;;15.00;11.23;;;14.90;99.90;;;;;;4985528;28;20246;-80
2022/05/10 02:14:53;;;;;;;17.37;12.13;;;14.90;99.90;;;;;;4986931;28;20213;-82
2022/05/10 02:17:27;;;;;;;20.17;12.13;;;14.60;99.90;;;;;;4987973;28;20219;-81
2022/05/10 02:20:05;;;;;;;21.57;12.33;;;14.70;99.90;;;;;;4971350;28;20231;-80
2022/05/10 02:22:44;;;;;;;16.93;11.50;;;14.80;99.90;;;;;;4986905;28;20265;-81
2022/05/10 02:25:20;;;;;;;17.77;12.23;;;14.70;99.90;;;;;;4989215;28;20241;-80
2022/05/10 02:27:52;;;;;;;17.73;12.87;;;14.80;99.90;;;;;;4988827;28;20284;-78
2022/05/10 02:30:22;;;;;;;18.63;13.77;;;14.80;99.90;;;;;;4985995;28;20249;-80
2022/05/10 02:33:06;;;;;;;21.20;13.60;;;14.80;99.90;;;;;;4987843;28;20237;-79
2022/05/10 02:35:55;;;;;;;23.60;13.90;;;14.80;99.90;;;;;;4985007;28;20754;-81
2022/05/10 02:38:30;;;;;;;20.17;13.80;;;14.80;99.90;;;;;;4972062;28;20663;-80
2022/05/10 02:41:00;;;;;;;23.00;13.93;;;14.70;99.90;;;;;;4986092;28;20324;-81
2022/05/10 02:43:40;;;;;;;22.87;14.57;;;14.80;99.90;;;;;;4971683;28;20312;-80
2022/05/10 02:46:06;;;;;;;21.53;14.13;;;14.80;99.90;;;;;;4971820;28;20224;-80
2022/05/10 02:48:36;;;;;;;23.37;14.47;;;15.20;99.90;;;;;;4989052;28;20711;-80
2022/05/10 02:51:04;;;;;;;23.03;14.90;;;14.80;99.90;;;;;;4967885;28;20244;-80
2022/05/10 02:53:31;;;;;;;22.03;14.47;;;14.80;99.90;;;;;;4968589;28;20624;-80
2022/05/10 02:56:01;;;;;;;20.73;13.43;;;14.80;99.90;;;;;;4968571;28;20226;-80
2022/05/10 02:58:57;;;;;;;23.03;14.97;;;14.80;99.90;;;;;;4972249;28;20493;-80
2022/05/10 03:01:51;;;;;;;22.33;14.87;;;14.90;99.90;;;;;;4968948;28;20251;-79
2022/05/10 03:04:21;;;;;;;23.60;14.50;;;14.70;99.90;;;;;;4969237;28;20220;-80
2022/05/10 03:06:49;;;;;;;20.90;14.50;;;14.50;99.90;;;;;;4970246;28;20219;-80
2022/05/10 03:09:16;;;;;;;22.83;14.83;;;15.20;99.90;;;;;;4965850;28;20657;-80
2022/05/10 03:11:44;;;;;;;19.07;14.50;;;15.50;99.90;;;;;;4970238;28;20514;-80
2022/05/10 03:14:12;;;;;;;23.33;14.33;;;14.70;99.90;;;;;;4970188;28;20279;-80
2022/05/10 03:16:39;;;;;;;24.27;14.53;;;14.90;99.90;;;;;;4969174;28;20253;-82
2022/05/10 03:19:06;;;;;;;21.97;14.47;;;14.90;99.90;;;;;;4969881;28;20267;-80
2022/05/10 03:21:39;;;;;;;21.90;15.13;;;15.00;99.90;;;;;;4969770;28;20696;-81
2022/05/10 03:24:06;;;;;;;26.57;14.23;;;15.40;99.90;;;;;;4969838;28;20678;-80
2022/05/10 03:26:34;;;;;;;21.33;14.57;;;14.70;99.90;;;;;;4969143;28;20275;-81
2022/05/10 03:29:02;;;;;;;22.03;14.43;;;14.90;99.90;;;;;;4968360;28;20215;-80
2022/05/10 03:31:30;;;;;;;21.80;13.97;;;14.80;99.90;;;;;;4969060;28;20302;-81
2022/05/10 03:36:43;;;;;;;22.93;13.53;;;15.90;99.90;;;;;;4965986;28;20628;-80
2022/05/10 03:39:10;;;;;;;21.57;12.63;;;15.30;99.90;;;;;;4968077;28;20298;-80
2022/05/10 03:41:37;;;;;;;19.17;14.00;;;15.10;99.90;;;;;;4984184;28;20742;-80
2022/05/10 03:44:04;;;;;;;24.03;14.37;;;15.10;99.90;;;;;;4985703;28;20711;-79
2022/05/10 03:46:36;;;;;;;17.00;12.80;;;14.20;99.90;;;;;;4970191;28;20248;-81
2022/05/10 03:49:07;;;;;;;24.60;13.73;;;15.00;99.90;;;;;;4970620;28;20676;-82
2022/05/10 03:51:42;;;;;;;21.43;13.33;;;15.00;99.90;;;;;;4991099;28;20211;-81
2022/05/10 03:54:10;;;;;;;18.80;14.17;;;14.80;99.90;;;;;;4988715;28;20662;-82
2022/05/10 03:56:36;;;;;;;22.53;14.27;;;14.90;99.90;;;;;;4986328;28;20573;-81
2022/05/10 03:59:04;;;;;;;20.97;13.80;;;14.90;99.90;;;;;;4988224;28;20714;-82
2022/05/10 04:01:30;;;;;;;20.40;14.70;;;14.80;99.90;;;;;;4988488;28;20622;-81
2022/05/10 04:03:57;;;;;;;20.37;14.30;;;14.90;99.90;;;;;;4988079;28;20278;-79
2022/05/10 04:06:24;;;;;;;26.87;14.70;;;14.70;99.90;;;;;;4990665;28;20203;-80
2022/05/10 04:08:51;;;;;;;21.07;14.60;;;14.90;99.90;;;;;;4992261;28;20601;-80
2022/05/10 04:11:18;;;;;;;19.97;13.83;;;15.00;99.90;;;;;;4992389;28;20351;-81
2022/05/10 04:13:45;;;;;;;20.80;14.23;;;15.00;99.90;;;;;;4992180;28;20694;-80
2022/05/10 04:16:13;;;;;;;22.13;13.70;;;15.10;99.90;;;;;;4991389;28;20243;-80
2022/05/10 04:18:40;;;;;;;21.93;13.77;;;15.00;99.90;;;;;;4990076;28;20783;-81
2022/05/10 04:21:08;;;;;;;21.87;14.73;;;15.10;99.90;;;;;;4991537;28;20204;-81
2022/05/10 04:23:35;;;;;;;19.83;13.40;;;15.20;99.90;;;;;;4973928;28;20215;-80
2022/05/10 04:26:11;;;;;;;22.70;14.27;;;15.10;99.90;;;;;;4991539;28;20230;-81
2022/05/10 04:28:43;;;;;;;22.73;14.03;;;15.20;99.90;;;;;;4991166;28;20219;-81
2022/05/10 04:31:10;;;;;;;23.00;13.93;;;15.20;99.90;;;;;;4991657;28;20261;-81
2022/05/10 04:33:37;;;;;;;23.63;12.67;;;15.20;99.90;;;;;;4990990;28;20226;-81
2022/05/10 04:36:08;;;;;;;20.83;13.80;;;15.30;99.90;;;;;;4973676;28;20281;-82
2022/05/10 04:38:44;;;;;;;19.87;13.73;;;15.30;99.90;;;;;;4990306;28;20254;-81
2022/05/10 04:41:28;;;;;;;20.63;13.20;;;15.30;99.90;;;;;;4974072;28;20560;-81
2022/05/10 04:44:07;;;;;;;19.87;13.67;;;15.40;99.90;;;;;;4991816;28;20246;-81
2022/05/10 04:46:35;;;;;;;20.47;13.13;;;15.40;99.90;;;;;;4989300;28;20211;-80
2022/05/10 04:49:03;;;;;;;21.43;14.13;;;15.40;99.90;;;;;;4973435;28;20348;-81
2022/05/10 04:51:30;;;;;;;20.37;13.17;;;15.60;99.90;;;;;;4991359;28;20207;-81
2022/05/10 04:53:58;;;;;;;19.77;13.17;;;15.50;99.90;;;;;;4991029;28;20285;-81
2022/05/10 04:56:25;;;;;;;20.83;13.43;;;15.60;99.90;;;;;;4991520;28;20277;-82
2022/05/10 04:58:54;;;;;;;24.43;13.63;;;15.70;99.90;;;;;;4990947;28;20635;-81
2022/05/10 05:01:29;;;;;;;22.97;13.97;;;15.80;99.90;;;;;;4974687;28;20230;-81
2022/05/10 05:04:02;;;;;;;23.97;14.03;;;15.80;99.90;;;;;;4993536;28;20230;-81
2022/05/10 05:06:30;;;;;;;26.13;14.77;;;15.90;99.90;;;;;;4991938;28;20215;-81
2022/05/10 05:08:57;;;;;;;19.87;14.00;;;16.00;99.90;;;;;;4987959;28;20668;-80
2022/05/10 05:11:24;;;;;;;29.77;14.43;;;16.10;99.90;;;;;;4970400;28;20608;-81
2022/05/10 05:13:52;;;;;;;22.67;14.40;;;16.10;99.90;;;;;;4973164;28;20359;-80
2022/05/10 05:16:19;;;;;;;22.93;14.70;;;16.20;99.90;;;;;;4971555;28;20210;-81
2022/05/10 05:18:46;;;;;;;30.23;15.40;;;16.20;99.90;;;;;;4987975;28;20688;-80
2022/05/10 05:21:13;;;;;;;23.37;13.67;;;16.30;99.90;;;;;;4985038;28;20222;-81
2022/05/10 05:23:41;;;;;;;25.70;13.80;;;16.40;99.90;;;;;;4987459;28;20203;-79
2022/05/10 05:26:08;;;;;;;24.83;14.63;;;16.50;99.90;;;;;;4971955;28;20207;-82
2022/05/10 05:28:35;;;;;;;24.90;13.97;;;16.50;99.90;;;;;;4989857;28;20211;-82
2022/05/10 05:31:02;;;;;;;26.27;14.70;;;16.70;99.90;;;;;;4988862;28;20214;-81
2022/05/10 05:33:30;;;;;;;26.83;13.03;;;16.80;99.90;;;;;;4981079;28;20223;-83
2022/05/10 05:35:57;;;;;;;23.30;13.33;;;16.90;99.90;;;;;;4989053;28;20718;-82
2022/05/10 05:38:26;;;;;;;33.40;15.73;;;17.00;99.90;;;;;;4989187;28;20588;-81
2022/05/10 05:40:53;;;;;;;23.40;13.13;;;17.10;99.90;;;;;;4972332;28;20211;-80
2022/05/10 05:43:22;;;;;;;22.10;13.53;;;17.20;99.90;;;;;;4989954;28;20235;-82
2022/05/10 05:45:50;;;;;;;17.60;12.20;;;17.30;99.90;;;;;;4986083;28;20219;-83
2022/05/10 05:48:18;;;;;;;21.10;13.70;;;17.30;99.90;;;;;;4972220;28;20219;-82
2022/05/10 05:50:45;;;;;;;23.33;14.03;;;17.30;99.90;;;;;;4990177;28;20230;-81
2022/05/10 05:53:14;;;;;;;22.15;12.93;;;17.40;99.90;;;;;;4989870;28;20207;-82
2022/05/10 05:55:42;;;;;;;20.40;12.30;;;17.40;99.90;;;;;;4990954;28;20298;-82
2022/05/10 05:58:12;;;;;;;19.10;12.40;;;17.40;99.90;;;;;;4987178;28;20219;-82
2022/05/10 06:00:39;;;;;;;21.20;13.30;;;17.40;99.90;;;;;;4989414;28;20241;-81
2022/05/10 06:03:07;;;;;;;19.70;12.53;;;17.60;99.90;;;;;;4987523;28;20227;-82
2022/05/10 06:05:34;;;;;;;23.07;13.07;;;17.60;99.90;;;;;;4970817;28;20716;-79
2022/05/10 06:08:01;;;;;;;23.27;13.60;;;17.60;99.90;;;;;;4985949;28;20215;-80
2022/05/10 06:10:28;;;;;;;21.13;13.50;;;17.80;99.90;;;;;;4985889;28;20215;-82
2022/05/10 06:12:58;;;;;;;19.10;12.73;;;17.80;99.90;;;;;;4985009;28;20195;-81
2022/05/10 06:15:25;;;;;;;21.35;12.88;;;17.80;99.90;;;;;;4971372;28;20659;-80
2022/05/10 06:17:51;;;;;;;22.13;12.63;;;18.00;99.90;;;;;;4988873;28;20210;-81
2022/05/10 06:20:21;;;;;;;26.42;13.73;;;18.10;99.90;;;;;;4988714;28;20211;-80
2022/05/10 06:22:48;;;;;;;21.70;12.70;;;18.10;99.90;;;;;;4988670;28;20289;-80
2022/05/10 06:25:18;;;;;;;21.88;12.88;;;18.20;99.90;;;;;;4988458;28;20290;-81
2022/05/10 06:27:50;;;;;;;19.58;13.15;;;18.30;99.90;;;;;;4988625;28;20210;-80
2022/05/10 06:30:18;;;;;;;19.58;12.48;;;18.40;99.90;;;;;;4988013;28;20607;-81
2022/05/10 06:32:46;;;;;;;23.60;13.63;;;18.50;99.90;;;;;;4971416;28;20218;-81
2022/05/10 06:35:14;;;;;;;23.17;11.68;;;18.60;99.90;;;;;;4987911;28;20215;-80
2022/05/10 06:40:31;;;;;;;26.92;13.35;;;18.90;99.90;;;;;;4988256;28;20211;-81
2022/05/10 06:42:59;;;;;;;22.23;11.07;;;19.10;99.90;;;;;;4987163;28;20607;-81
2022/05/10 06:45:26;;;;;;;21.05;10.43;;;19.40;99.90;;;;;;4988217;28;20212;-80
2022/05/10 06:47:53;;;;;;;18.88;11.23;;;19.60;99.90;;;;;;4987624;28;20214;-83
2022/05/10 06:50:23;;;;;;;16.02;11.55;;;20.00;99.90;;;;;;4986459;28;20231;-83
2022/05/10 06:52:52;;;;;;;19.58;10.05;;;20.00;99.90;;;;;;4986988;28;20269;-84
2022/05/10 06:55:19;;;;;;;15.38;10.23;;;20.10;99.90;;;;;;4988827;28;20199;-82
2022/05/10 06:57:46;;;;;;;17.35;9.32;;;20.30;99.90;;;;;;4988718;28;20301;-82
2022/05/10 07:00:14;;;;;;;17.63;9.95;;;20.40;99.90;;;;;;4970652;28;20210;-83
2022/05/10 07:02:41;;;;;;;14.00;9.25;;;20.40;99.90;;;;;;4970252;28;20231;-84
2022/05/10 07:05:09;;;;;;;14.45;9.68;;;20.50;99.90;;;;;;4971226;28;20242;-84
2022/05/10 07:07:37;;;;;;;19.70;8.98;;;20.70;99.90;;;;;;4971208;28;20203;-84
2022/05/10 07:10:08;;;;;;;13.75;8.35;;;20.70;99.90;;;;;;4988354;28;20626;-83
2022/05/10 07:12:42;;;;;;;13.77;8.40;;;20.80;99.90;;;;;;4986850;28;20213;-83
2022/05/10 07:15:15;;;;;;;16.52;9.25;;;20.80;99.90;;;;;;4988554;28;20670;-82
2022/05/10 07:17:44;;;;;;;16.63;8.88;;;20.90;99.90;;;;;;4988110;28;20235;-81
2022/05/10 07:20:13;;;;;;;13.27;9.00;;;21.00;99.90;;;;;;4986657;28;20226;-84
2022/05/10 07:22:40;;;;;;;12.75;9.23;;;21.10;99.90;;;;;;4989339;28;20243;-83
2022/05/10 07:25:08;;;;;;;17.77;9.07;;;21.20;99.90;;;;;;4989325;28;20572;-82
2022/05/10 07:27:35;;;;;;;12.60;8.80;;;21.30;99.90;;;;;;4985448;28;20534;-82
2022/05/10 07:30:05;;;;;;;13.70;8.68;;;21.40;99.90;;;;;;4986905;28;20211;-82
2022/05/10 07:32:36;;;;;;;11.30;7.55;;;21.50;99.90;;;;;;4987916;28;20219;-83
2022/05/10 07:35:04;;;;;;;15.52;7.53;;;21.50;99.90;;;;;;4988051;28;20227;-81
2022/05/10 07:37:35;;;;;;;12.23;7.43;;;21.60;99.90;;;;;;4988996;28;20285;-82
2022/05/10 07:40:03;;;;;;;13.38;6.78;;;21.80;99.90;;;;;;4987917;28;20998;-83
2022/05/10 07:42:30;;;;;;;12.07;7.15;;;21.90;99.90;;;;;;4992473;28;20243;-82
2022/05/10 07:44:57;;;;;;;12.20;7.47;;;22.10;99.90;;;;;;4993232;28;20270;-84
2022/05/10 07:47:24;;;;;;;10.95;7.10;;;22.40;99.90;;;;;;4993686;28;20216;-83
2022/05/10 07:49:51;;;;;;;14.02;7.53;;;22.50;99.90;;;;;;4991203;28;20242;-84
2022/05/10 07:52:17;;;;;;;12.00;8.15;;;22.70;99.90;;;;;;4991304;28;20258;-81
2022/05/10 07:54:44;;;;;;;12.23;7.30;;;22.80;99.90;;;;;;4991959;28;20273;-82
2022/05/10 07:57:11;;;;;;;10.50;7.82;;;22.90;99.90;;;;;;4991595;28;20633;-82
2022/05/10 07:59:38;;;;;;;10.38;7.90;;;23.00;99.90;;;;;;4991616;28;20257;-83
2022/05/10 08:02:07;;;;;;;12.80;8.18;;;23.10;99.90;;;;;;4992098;28;20230;-84
2022/05/10 08:04:34;;;;;;;10.85;7.80;;;23.10;99.90;;;;;;4991507;28;20226;-81
2022/05/10 08:07:01;;;;;;;12.40;8.50;;;23.20;99.90;;;;;;4992169;28;20203;-83
2022/05/10 08:09:28;;;;;;;13.50;8.15;;;23.30;99.90;;;;;;4990195;28;20278;-84
2022/05/10 08:11:55;;;;;;;13.77;8.93;;;23.30;99.90;;;;;;4991340;28;20686;-82
2022/05/10 08:14:22;;;;;;;11.07;8.10;;;23.50;99.90;;;;;;4991252;28;20725;-82
2022/05/10 08:16:49;;;;;;;10.45;8.43;;;23.60;99.90;;;;;;4990583;28;20211;-83
2022/05/10 08:19:16;;;;;;;12.32;8.73;;;23.70;99.90;;;;;;4990863;28;20254;-81
2022/05/10 08:21:43;;;;;;;15.27;9.68;;;23.80;99.90;;;;;;4992094;28;20239;-84
2022/05/10 08:24:14;;;;;;;9.52;8.10;;;23.90;99.90;;;;;;4993883;28;20250;-90
2022/05/10 08:26:43;;;;;;;12.65;9.07;;;24.00;99.90;;;;;;4995952;28;20215;-87
2022/05/10 08:29:10;;;;;;;12.52;9.00;;;24.00;99.90;;;;;;4994016;28;20377;-82
2022/05/10 08:31:37;;;;;;;14.15;8.73;;;24.20;99.90;;;;;;4991089;28;20273;-83
2022/05/10 08:34:21;;;;;;;13.02;9.38;;;24.50;99.90;;;;;;4990003;28;20214;-82
2022/05/10 08:36:52;;;;;;;11.77;9.32;;;24.20;99.90;;;;;;4991222;28;20214;-82
2022/05/10 08:39:19;;;;;;;10.75;9.65;;;24.30;99.90;;;;;;4991413;28;20207;-84
2022/05/10 08:41:58;;;;;;;12.25;9.23;;;24.30;99.90;;;;;;4991554;28;20211;-84
2022/05/10 08:44:28;;;;;;;14.07;10.00;;;24.30;99.90;;;;;;4991163;28;20231;-83
2022/05/10 08:47:03;;;;;;;10.45;8.50;;;24.10;99.90;;;;;;4974271;28;20203;-83
2022/05/10 08:49:39;;;;;;;11.05;8.38;;;24.10;99.90;;;;;;4991204;28;20300;-83
2022/05/10 08:52:06;;;;;;;11.82;8.50;;;24.10;99.90;;;;;;4989225;28;20206;-84
2022/05/10 08:54:37;;;;;;;9.32;8.18;;;24.10;99.90;;;;;;4973642;28;20211;-84
2022/05/10 08:57:14;;;;;;;9.35;8.35;;;24.10;99.90;;;;;;4990925;28;20289;-83
2022/05/10 09:00:05;;;;;;;12.77;8.80;;;23.80;99.90;;;;;;4990617;28;20302;-83
2022/05/10 09:02:51;;;;;;;12.13;7.65;;;24.00;99.90;;;;;;4990732;28;20253;-82
2022/05/10 09:05:33;;;;;;;12.13;8.48;;;23.90;99.90;;;;;;4990358;28;20249;-81
2022/05/10 09:08:24;;;;;;;9.02;7.78;;;24.00;99.90;;;;;;4990464;28;20238;-83
2022/05/10 09:10:57;;;;;;;12.15;7.38;;;23.90;99.90;;;;;;4988592;28;20206;-83
2022/05/10 09:13:27;;;;;;;12.00;7.60;;;24.20;99.90;;;;;;4988542;28;20727;-82
2022/05/10 09:16:03;;;;;;;13.50;8.50;;;24.10;99.90;;;;;;4989864;28;20207;-85
2022/05/10 09:18:39;;;;;;;9.60;7.40;;;24.20;99.90;;;;;;4969642;28;20305;-83
2022/05/10 09:21:18;;;;;;;13.00;7.47;;;24.50;99.90;;;;;;4990247;28;20243;-82
2022/05/10 09:24:16;;;;;;;10.63;7.18;;;24.60;99.90;;;;;;4973731;28;20709;-83
2022/05/10 09:26:46;;;;;;;9.88;7.55;;;24.90;99.90;;;;;;4989499;28;20744;-84
2022/05/10 09:29:33;;;;;;;8.90;7.03;;;25.20;99.70;;;;;;4989652;28;20641;-83
2022/05/10 09:35:21;;;;;;;7.82;6.78;;;25.40;98.60;;;;;;4988902;28;20627;-82
2022/05/10 09:37:48;;;;;;;7.80;6.05;;;25.50;98.80;;;;;;4989337;28;20207;-83
2022/05/10 09:40:19;;;;;;;8.55;6.57;;;25.50;98.60;;;;;;4989547;28;20663;-81
2022/05/10 09:42:52;;;;;;;8.00;5.95;;;25.70;98.60;;;;;;4989864;28;20273;-82
2022/05/10 09:45:23;;;;;;;14.25;6.15;;;26.20;98.30;;;;;;4986711;28;20211;-85
2022/05/10 09:48:15;;;;;;;7.68;5.80;;;26.40;97.40;;;;;;4972989;28;20293;-86
2022/05/10 09:50:49;;;;;;;6.97;5.55;;;26.50;96.60;;;;;;4987841;28;20313;-84
2022/05/10 09:53:27;;;;;;;7.38;5.57;;;26.60;96.00;;;;;;4987468;28;20582;-84
2022/05/10 09:56:08;;;;;;;7.70;5.43;;;26.80;95.80;;;;;;4973582;28;20203;-84
2022/05/10 09:58:54;;;;;;;9.80;6.07;;;26.80;94.70;;;;;;4986852;28;20214;-85
2022/05/10 10:01:45;;;;;;;7.90;5.75;;;26.50;93.90;;;;;;4974057;28;20231;-82
2022/05/10 10:04:21;;;;;;;10.80;5.80;;;26.60;94.40;;;;;;4987267;28;20219;-84
2022/05/10 10:07:03;;;;;;;8.05;5.35;;;26.50;94.20;;;;;;4964865;28;20207;-84
2022/05/10 10:09:33;;;;;;;10.13;5.50;;;26.60;94.00;;;;;;4986575;28;20734;-83
2022/05/10 10:12:01;;;;;;;9.65;4.97;;;26.60;93.60;;;;;;4989286;28;20211;-84
2022/05/10 10:14:57;;;;;;;;;;;;;;;;;;;;;
2022/05/10 10:17:33;;;;;;;6.50;4.82;;;26.80;93.20;;;;;;4987528;28;20215;-84
2022/05/10 10:20:19;;;;;;;8.35;5.00;;;26.90;92.20;;;;;;4985568;28;20223;-84
2022/05/10 10:22:55;;;;;;;16.08;5.40;;;26.90;91.70;;;;;;4987976;28;20234;-86
2022/05/10 10:25:46;;;;;;;8.48;5.10;;;26.80;91.20;;;;;;4988039;28;20652;-84
2022/05/10 10:28:29;;;;;;;11.15;5.18;;;26.70;90.70;;;;;;4987308;28;20219;-81
2022/05/10 10:31:09;;;;;;;11.13;5.53;;;26.40;90.60;;;;;;4987298;28;20290;-82
2022/05/10 10:33:41;;;;;;;7.18;4.85;;;26.40;90.30;;;;;;4987945;28;20259;-82
2022/05/10 10:36:21;;;;;;;5.40;4.45;;;26.40;90.60;;;;;;4988859;28;20207;-82
2022/05/10 10:38:56;;;;;;;7.85;4.97;;;26.50;90.90;;;;;;4988480;28;20207;-82
2022/05/10 10:41:49;;;;;;;7.40;5.25;;;26.60;90.70;;;;;;4986729;28;20199;-83
2022/05/10 10:44:22;;;;;;;8.75;5.13;;;26.70;91.00;;;;;;4969849;28;20227;-83
2022/05/10 10:47:08;;;;;;;7.68;5.15;;;26.70;89.90;;;;;;4988938;28;20228;-85
2022/05/10 10:49:59;;;;;;;7.93;6.07;;;26.40;89.10;;;;;;4989020;28;20235;-83
2022/05/10 10:52:29;;;;;;;9.57;5.57;;;26.20;89.90;;;;;;4987540;28;20675;-82
2022/05/10 10:54:56;;;;;;;10.00;5.35;;;26.10;90.20;;;;;;4989665;28;20242;-82
2022/05/10 10:58:02;;;;;;;9.23;5.40;;;26.10;90.30;;;;;;4987920;28;20210;-84
2022/05/10 11:00:54;;;;;;;11.45;5.20;;;26.30;90.10;;;;;;4982447;28;20285;-84
2022/05/10 11:03:49;;;;;;;8.95;5.88;;;26.50;90.10;;;;;;4959323;28;20231;-85
2022/05/10 11:06:24;;;;;;;7.50;5.00;;;26.70;90.30;;;;;;4985824;28;20226;-83
2022/05/10 11:09:28;;;;;;;7.90;5.65;;;26.80;90.30;;;;;;4968252;28;20553;-84
2022/05/10 11:11:55;;;;;;;7.95;6.20;;;27.00;89.50;;;;;;4987641;28;20218;-83
2022/05/10 11:14:41;;;;;;;10.98;6.43;;;26.90;89.60;;;;;;4987981;28;20199;-81
2022/05/10 11:17:26;;;;;;;10.38;6.45;;;26.70;88.80;;;;;;4987427;28;20218;-82
2022/05/10 11:20:20;;;;;;;8.45;5.80;;;26.40;89.00;;;;;;4987033;28;20699;-83
2022/05/10 11:23:07;;;;;;;14.10;6.35;;;26.40;88.70;;;;;;4985267;28;20688;-84
2022/05/10 11:25:59;;;;;;;10.38;6.03;;;26.30;89.10;;;;;;4985418;28;20203;-82
2022/05/10 11:28:44;;;;;;;12.02;6.43;;;26.20;89.10;;;;;;4988884;28;20501;-85
2022/05/10 11:31:33;;;;;;;7.93;5.70;;;26.20;88.80;;;;;;4989113;28;20210;-84
2022/05/10 11:34:15;;;;;;;11.60;5.45;;;26.20;88.80;;;;;;4985570;28;20309;-83
2022/05/10 11:36:47;;;;;;;11.57;6.20;;;26.40;89.40;;;;;;4987358;28;20246;-84
2022/05/10 11:39:46;;;;;;;10.30;6.20;;;26.40;88.70;;;;;;4988489;28;20221;-83
2022/05/10 11:42:45;;;;;;;11.82;5.70;;;26.70;87.70;;;;;;4987989;28;20310;-82
2022/05/10 11:45:23;;;;;;;11.07;6.40;;;26.80;88.10;;;;;;4986198;28;20230;-82
2022/05/10 11:48:12;;;;;;;15.68;6.40;;;26.80;87.80;;;;;;4973043;28;20209;-82
2022/05/10 11:54:20;;;;;;;15.18;6.68;;;26.50;87.70;;;;;;4986336;28;20215;-83
2022/05/10 11:56:50;;;;;;;13.18;7.00;;;26.50;88.30;;;;;;4967043;28;20226;-84
2022/05/10 11:59:31;;;;;;;9.68;6.55;;;26.50;88.50;;;;;;4980776;28;20203;-83
2022/05/10 12:01:59;;;;;;;8.80;5.78;;;26.60;87.80;;;;;;4971023;28;20214;-84
2022/05/10 12:04:46;;;;;;;8.15;6.18;;;26.30;88.40;;;;;;4988518;28;20238;-84
2022/05/10 12:07:19;;;;;;;8.02;5.30;;;26.60;89.60;;;;;;4986912;28;20245;-84
2022/05/10 12:09:52;;;;;;;11.80;6.00;;;26.70;88.90;;;;;;4986869;28;20214;-85
2022/05/10 12:12:31;;;;;;;10.63;5.60;;;26.90;88.50;;;;;;4988321;28;20651;-85
2022/05/10 12:24:03;;;;;;;10.57;6.20;;;27.10;85.30;;;;;;4983596;28;20231;-84
2022/05/10 12:26:43;;;;;;;12.73;5.82;;;27.30;85.40;;;;;;4986412;28;20250;-84
2022/05/10 12:29:34;;;;;;;13.55;7.00;;;27.30;85.30;;;;;;4984816;28;20214;-82
2022/05/10 12:32:09;;;;;;;10.98;6.90;;;27.20;84.20;;;;;;4990295;28;20592;-86
2022/05/10 12:34:52;;;;;;;10.38;6.60;;;27.10;85.20;;;;;;4993087;28;20217;-89
2022/05/10 12:37:42;;;;;;;10.70;6.95;;;27.30;86.80;;;;;;4994686;28;20214;-87
2022/05/10 12:40:09;;;;;;;10.38;6.78;;;27.30;84.70;;;;;;4992043;28;20298;-84
2022/05/10 12:43:03;;;;;;;10.95;6.05;;;27.30;84.60;;;;;;4997478;28;20209;-88
2022/05/10 12:45:33;;;;;;;7.72;6.03;;;27.40;85.90;;;;;;4994650;28;20214;-88
2022/05/10 12:48:30;;;;;;;11.13;6.15;;;27.60;85.80;;;;;;4992728;28;20227;-90
2022/05/10 12:51:12;;;;;;;9.18;5.80;;;27.80;86.00;;;;;;4977907;28;20326;-90
2022/05/10 12:53:47;;;;;;;8.32;5.32;;;27.70;85.00;;;;;;4992294;28;20225;-87
2022/05/10 12:56:26;;;;;;;10.15;6.35;;;27.70;85.40;;;;;;4979604;28;20217;-93
2022/05/10 12:59:11;;;;;;;10.02;7.05;;;27.70;84.50;;;;;;5000794;28;20219;-89
2022/05/10 13:01:38;;;;;;;8.38;5.97;;;27.60;83.80;;;;;;4984966;28;20694;-86
2022/05/10 13:04:17;;;;;;;7.07;5.75;;;27.50;83.90;;;;;;4989382;28;20290;-90
2022/05/10 13:07:02;;;;;;;8.57;6.07;;;27.50;83.90;;;;;;4989283;28;20207;-89
2022/05/10 13:09:34;;;;;;;17.52;6.47;;;27.40;83.00;;;;;;5001761;28;20210;-87
2022/05/10 13:12:18;;;;;;;9.77;5.32;;;27.40;83.60;;;;;;4989195;28;20218;-88
2022/05/10 13:14:48;;;;;;;9.18;5.32;;;27.40;84.50;;;;;;5002222;28;20230;-90
2022/05/10 13:17:26;;;;;;;14.00;6.80;;;27.50;84.70;;;;;;4997175;28;20212;-87
2022/05/10 13:19:55;;;;;;;9.27;6.20;;;27.50;84.60;;;;;;4984403;28;20305;-88
2022/05/10 13:22:27;;;;;;;11.77;6.35;;;27.40;84.70;;;;;;4981623;28;20217;-87
2022/05/10 13:25:06;;;;;;;8.88;6.20;;;27.20;84.90;;;;;;4979977;28;20246;-93
2022/05/10 13:27:37;;;;;;;9.55;6.03;;;27.30;85.50;;;;;;4977916;28;20215;-83
2022/05/10 13:30:18;;;;;;;10.25;7.10;;;27.30;85.50;;;;;;4975103;28;20200;-85
2022/05/10 13:32:50;;;;;;;9.65;6.53;;;27.40;84.70;;;;;;4988174;28;20207;-88
2022/05/10 13:35:27;;;;;;;11.27;6.75;;;27.50;84.60;;;;;;4976944;28;20225;-89